.
WxDataArchive / Data Records for 2012-05-03
2012-05-02 May 2012 2012-05-04

Data Records for Thursday, 03 May 2012

Time	Temp	Chill	HIndex	Humid	Dewpt	 Wind 	HiWind	WindDir	Rain 	Barom 
-----	----	-----	------	-----	-----	------	------	-------	-----	----- 
00:00	68.1	68.1	68.1	87	64.1	0	0	---	0.00	29.957 
00:05	67.9	67.9	67.9	88	64.2	0	0	---	0.00	29.957 
00:10	67.8	67.8	67.8	88	64.1	0	0	---	0.00	29.957 
00:15	67.6	67.6	67.6	88	63.9	0	0	---	0.00	29.955 
00:20	67.4	67.4	67.4	88	63.7	0	0	---	0.00	29.955 
00:25	67.3	67.3	67.3	89	63.9	0	0	---	0.00	29.955 
00:30	67.3	67.3	67.3	89	63.9	0	0	---	0.00	29.954 
00:35	67.3	67.3	67.3	89	63.9	0	0	---	0.00	29.954 
00:40	67.1	67.1	67.1	90	64.1	0	0	---	0.00	29.954 
00:45	67.1	67.1	67.1	90	64.1	0	0	---	0.00	29.955 
00:50	66.9	66.9	66.9	90	63.9	0	0	---	0.00	29.955 
00:55	66.9	66.9	66.9	90	63.9	0	0	---	0.00	29.955 
01:00	66.9	66.9	66.9	90	63.9	0	0	---	0.00	29.959 
01:05	66.8	66.8	66.8	91	64.1	0	0	---	0.00	29.959 
01:10	66.8	66.8	66.8	91	64.1	0	0	---	0.00	29.959 
01:15	66.6	66.6	66.6	91	63.9	0	0	---	0.00	29.962 
01:20	66.6	66.6	66.6	91	63.9	0	0	---	0.00	29.962 
01:25	66.4	66.4	66.4	92	64.0	0	0	---	0.00	29.962 
01:30	66.4	66.4	66.4	92	64.0	0	0	---	0.00	29.961 
01:35	66.4	66.4	66.4	92	64.0	0	0	---	0.00	29.961 
01:40	66.3	66.3	66.3	92	63.9	0	0	---	0.00	29.961 
01:45	66.1	66.1	66.1	92	63.7	0	0	---	0.00	29.958 
01:50	66.1	66.1	66.1	92	63.7	0	0	---	0.00	29.958 
01:55	66.1	66.1	66.1	92	63.7	0	0	---	0.00	29.958 
02:00	66.0	66.0	66.0	92	63.6	0	0	---	0.00	29.954 
02:05	66.0	66.0	66.0	92	63.6	0	0	---	0.00	29.954 
02:10	65.8	65.8	65.8	92	63.4	0	0	---	0.00	29.954 
02:15	65.8	65.8	65.8	93	63.7	0	0	---	0.00	29.946 
02:20	65.8	65.8	65.8	93	63.7	0	0	---	0.00	29.946 
02:25	65.8	65.8	65.8	93	63.7	0	0	---	0.00	29.946 
02:30	66.0	66.0	66.0	93	63.9	0	1	270	0.00	29.944 
02:35	66.3	66.3	66.3	93	64.2	0	0	---	0.00	29.944 
02:40	66.4	66.4	66.4	93	64.3	0	0	---	0.00	29.944 
02:45	66.3	66.3	66.3	93	64.2	0	0	---	0.00	29.939 
02:50	66.1	66.1	66.1	93	64.0	0	0	---	0.00	29.939 
02:55	65.8	65.8	65.8	93	63.7	0	0	---	0.00	29.939 
03:00	65.8	65.8	65.8	93	63.7	0	0	---	0.00	29.933 
03:05	65.6	65.6	65.6	93	63.5	0	0	---	0.00	29.933 
03:10	65.6	65.6	65.6	93	63.5	0	0	---	0.00	29.933 
03:15	65.5	65.5	65.5	93	63.4	0	0	---	0.00	29.932 
03:20	65.3	65.3	65.3	93	63.2	0	0	---	0.00	29.932 
03:25	65.3	65.3	65.3	93	63.2	0	0	---	0.00	29.932 
03:30	65.2	65.2	65.2	93	63.1	0	0	---	0.00	29.930 
03:35	65.2	65.2	65.2	93	63.1	0	0	---	0.00	29.930 
03:40	65.0	65.0	65.0	93	62.9	0	0	---	0.00	29.930 
03:45	65.0	65.0	65.0	93	62.9	0	0	---	0.00	29.931 
03:50	64.8	64.8	64.8	93	62.7	0	0	---	0.00	29.931 
03:55	64.8	64.8	64.8	93	62.7	0	0	---	0.00	29.931 
04:00	64.7	64.7	64.7	93	62.6	0	0	---	0.00	29.934 
04:05	64.7	64.7	64.7	93	62.6	0	0	---	0.00	29.934 
04:10	64.7	64.7	64.7	94	62.9	0	0	---	0.00	29.934 
04:15	64.7	64.7	64.7	94	62.9	0	0	---	0.00	29.933 
04:20	64.7	64.7	64.7	93	62.6	0	0	---	0.00	29.933 
04:25	64.7	64.7	64.7	94	62.9	0	0	---	0.00	29.933 
04:30	64.7	64.7	64.7	94	62.9	0	0	---	0.00	29.932 
04:35	64.5	64.5	64.5	94	62.7	0	0	---	0.00	29.932 
04:40	64.5	64.5	64.5	94	62.7	0	0	---	0.00	29.932 
04:45	64.5	64.5	64.5	94	62.7	0	0	---	0.00	29.932 
04:50	64.3	64.3	64.3	94	62.5	0	0	---	0.00	29.932 
04:55	64.3	64.3	64.3	94	62.5	0	0	---	0.00	29.932 
05:00	64.3	64.3	64.3	94	62.5	0	0	---	0.00	29.935 
05:05	64.5	64.5	64.5	94	62.7	0	1	270	0.00	29.935 
05:10	64.5	64.5	64.5	94	62.7	0	0	---	0.00	29.935 
05:15	64.5	64.5	64.5	94	62.7	0	1	270	0.00	29.942 
05:20	64.5	64.5	64.5	94	62.7	0	0	---	0.00	29.942 
05:25	64.7	64.7	64.7	93	62.6	0	0	---	0.00	29.942 
05:30	64.7	64.7	64.7	93	62.6	0	0	---	0.00	29.942 
05:35	64.7	64.7	64.7	93	62.6	0	0	---	0.00	29.942 
05:40	64.7	64.7	64.7	93	62.6	0	0	---	0.00	29.942 
05:45	64.7	64.7	64.7	93	62.6	0	0	---	0.00	29.949 
05:50	64.7	64.7	64.7	92	62.3	0	0	---	0.00	29.949 
05:55	64.7	64.7	64.7	92	62.3	0	0	---	0.00	29.949 
06:00	64.8	64.8	64.8	92	62.4	0	0	---	0.00	29.949 
06:05	64.8	64.8	64.8	92	62.4	0	0	---	0.00	29.949 
06:10	64.8	64.8	64.8	92	62.4	0	0	---	0.00	29.949 
06:15	64.8	64.8	64.8	92	62.4	0	0	---	0.00	29.955 
06:20	64.8	64.8	64.8	92	62.4	0	0	---	0.00	29.955 
06:25	64.8	64.8	64.8	91	62.1	0	0	---	0.00	29.955 
06:30	65.0	65.0	65.0	91	62.3	0	0	---	0.00	29.963 
06:35	65.0	65.0	65.0	91	62.3	0	0	---	0.00	29.963 
06:40	65.0	65.0	65.0	91	62.3	0	0	---	0.00	29.963 
06:45	65.2	65.2	65.2	91	62.5	0	0	---	0.00	29.968 
06:50	65.3	65.3	65.3	91	62.6	0	0	---	0.00	29.968 
06:55	65.3	65.3	65.3	91	62.6	0	0	---	0.00	29.968 
07:00	65.3	65.3	65.3	90	62.3	0	0	---	0.00	29.976 
07:05	65.5	65.5	65.5	90	62.5	0	0	---	0.00	29.976 
07:10	65.6	65.6	65.6	90	62.6	0	1	270	0.00	29.976 
07:15	66.0	66.0	66.0	89	62.7	0	1	270	0.00	29.980 
07:20	66.4	66.4	66.4	89	63.1	0	1	270	0.00	29.980 
07:25	66.6	66.6	66.6	88	62.9	0	2	270	0.00	29.980 
07:30	66.9	66.9	66.9	88	63.2	0	1	270	0.00	29.982 
07:35	67.4	67.4	67.4	87	63.4	0	1	270	0.00	29.982 
07:40	67.6	67.6	67.6	86	63.3	0	2	270	0.00	29.982 
07:45	67.8	67.8	67.8	85	63.1	0	1	270	0.00	29.979 
07:50	67.8	67.8	67.8	85	63.1	0	1	270	0.00	29.979 
07:55	68.1	68.1	68.1	85	63.4	0	1	270	0.00	29.979 
08:00	68.6	68.6	68.6	84	63.6	0	1	270	0.00	29.984 
08:05	69.1	69.1	69.1	83	63.7	0	1	270	0.00	29.984 
08:10	69.8	69.8	69.8	82	64.0	0	1	270	0.00	29.984 
08:15	70.3	70.3	70.3	81	64.2	0	1	270	0.00	29.991 
08:20	70.8	70.8	70.8	79	64.0	0	2	270	0.00	29.991 
08:25	71.5	71.5	71.5	78	64.3	0	2	270	0.00	29.991 
08:30	72.1	72.1	72.1	77	64.5	1	3	270	0.00	29.994 
08:35	72.5	72.5	72.5	75	64.1	1	6	68	0.00	29.994 
08:40	73.0	73.0	73.0	75	64.6	0	2	68	0.00	29.994 
08:45	73.5	73.5	73.5	74	64.7	1	4	68	0.00	29.989 
08:50	74.0	74.0	74.0	72	64.4	1	4	248	0.00	29.989 
08:55	74.6	74.6	74.6	71	64.6	1	4	248	0.00	29.989 
09:00	74.9	74.9	74.9	70	64.4	1	3	248	0.00	29.988 
09:05	75.3	75.3	77.0	69	64.4	1	4	248	0.00	29.988 
09:10	75.6	75.6	77.4	68	64.3	1	3	270	0.00	29.988 
09:15	76.0	76.0	77.7	69	65.1	1	3	270	0.00	29.993 
09:20	76.5	76.5	78.3	68	65.1	0	2	270	0.00	29.993 
09:25	76.8	76.8	78.6	65	64.1	1	4	270	0.00	29.993 
09:30	77.2	77.2	79.0	64	64.1	1	5	248	0.00	29.988 
09:35	77.6	77.6	79.4	63	64.0	1	5	248	0.00	29.988 
09:40	77.7	77.7	79.4	62	63.6	2	5	270	0.00	29.988 
09:45	77.7	77.7	79.4	62	63.6	2	5	270	0.00	29.979 
09:50	77.9	77.9	79.7	63	64.3	2	5	270	0.00	29.979 
09:55	78.3	78.3	80.0	61	63.7	1	3	248	0.00	29.979 
10:00	78.6	78.6	80.2	59	63.1	2	5	270	0.00	29.979 
10:05	79.0	79.0	80.7	60	63.9	2	3	270	0.00	29.979 
10:10	79.6	79.6	81.2	58	63.5	1	2	270	0.00	29.979 
10:15	79.9	79.9	81.5	58	63.8	1	3	270	0.00	29.973 
10:20	79.9	79.9	81.2	55	62.3	3	5	270	0.00	29.973 
10:25	80.3	80.3	81.8	57	63.7	1	4	270	0.00	29.973 
10:30	80.9	80.9	82.3	55	63.2	1	2	270	0.00	29.974 
10:35	81.1	81.1	82.3	54	62.9	2	4	270	0.00	29.974 
10:40	81.1	81.1	82.3	54	62.9	2	6	270	0.00	29.974 
10:45	81.1	81.1	82.1	52	61.8	2	6	270	0.00	29.973 
10:50	81.2	81.2	82.5	54	62.9	2	5	270	0.00	29.973 
10:55	81.4	81.4	82.7	54	63.1	2	6	270	0.00	29.973 
11:00	81.4	81.4	82.5	53	62.6	2	5	248	0.00	29.974 
11:05	81.6	81.6	82.6	52	62.2	2	5	248	0.00	29.974 
11:10	81.8	81.8	83.0	53	63.0	3	5	248	0.00	29.974 
11:15	81.8	81.8	82.8	52	62.4	3	6	248	0.00	29.976 
11:20	82.2	82.2	83.3	52	62.8	1	5	270	0.00	29.976 
11:25	82.4	82.4	83.2	50	61.9	2	4	248	0.00	29.976 
11:30	82.6	82.6	83.3	49	61.5	2	9	248	0.00	29.973 
11:35	82.4	82.4	83.4	51	62.4	2	6	292	0.00	29.973 
11:40	82.4	82.4	83.0	49	61.3	2	5	248	0.00	29.973 
11:45	82.6	82.6	83.1	48	60.9	2	6	270	0.00	29.965 
11:50	83.0	83.0	83.9	50	62.4	2	9	248	0.00	29.965 
11:55	83.4	83.4	84.4	50	62.8	2	5	248	0.00	29.965 
12:00	83.4	83.4	84.0	48	61.6	2	7	248	0.00	29.966 
12:05	83.2	83.2	84.0	49	62.0	3	5	248	0.00	29.966 
12:10	83.0	83.0	83.5	48	61.3	3	7	248	0.00	29.966 
12:15	82.8	82.8	83.2	47	60.5	3	7	270	0.00	29.965 
12:20	82.8	82.8	83.3	48	61.1	3	7	248	0.00	29.965 
12:25	82.8	82.8	83.3	48	61.1	3	7	248	0.00	29.965 
12:30	83.2	83.2	84.0	49	62.0	3	7	292	0.00	29.964 
12:35	83.4	83.4	84.4	50	62.8	2	5	270	0.00	29.964 
12:40	83.6	83.6	84.1	47	61.2	2	9	270	0.00	29.964 
12:45	83.6	83.6	84.1	47	61.2	2	6	248	0.00	29.963 
12:50	83.8	83.8	84.3	47	61.4	3	6	248	0.00	29.963 
12:55	83.8	83.8	83.9	45	60.2	3	9	270	0.00	29.963 
13:00	84.0	84.0	84.3	46	61.0	2	5	270	0.00	29.964 
13:05	84.1	84.1	84.4	46	61.1	2	4	248	0.00	29.964 
13:10	84.3	84.3	84.9	47	61.8	2	4	248	0.00	29.964 
13:15	84.5	84.5	84.7	45	60.8	3	6	270	0.00	29.960 
13:20	84.7	84.7	85.0	45	61.0	3	7	248	0.00	29.960 
13:25	84.7	84.7	85.4	47	62.2	2	5	248	0.00	29.960 
13:30	84.7	84.7	84.7	44	60.3	3	10	248	0.00	29.960 
13:35	84.7	84.7	85.0	45	61.0	2	5	270	0.00	29.960 
13:40	84.7	84.7	85.2	46	61.6	3	6	248	0.00	29.960 
13:45	84.7	84.7	85.2	46	61.6	3	10	248	0.00	29.958 
13:50	84.9	84.9	85.0	44	60.5	3	7	248	0.00	29.958 
13:55	85.1	85.1	85.4	45	61.3	3	7	248	0.00	29.958 
14:00	85.3	85.3	85.5	44	60.9	3	10	248	0.00	29.948 
14:05	85.5	85.5	85.9	45	61.7	3	6	248	0.00	29.948 
14:10	85.3	85.3	85.5	44	60.9	4	12	248	0.00	29.948 
14:15	85.3	85.3	85.2	43	60.2	4	12	270	0.00	29.949 
14:20	85.3	85.3	85.7	45	61.5	3	9	248	0.00	29.949 
14:25	85.3	85.3	85.7	45	61.5	3	10	270	0.00	29.949 
14:30	85.7	85.7	86.0	44	61.2	3	9	248	0.00	29.944 
14:35	85.7	85.7	86.0	44	61.2	2	10	248	0.00	29.944 
14:40	86.1	86.1	86.5	44	61.6	2	9	248	0.00	29.944 
14:45	85.9	85.9	85.7	42	60.1	4	9	248	0.00	29.939 
14:50	85.9	85.9	86.0	43	60.8	3	7	248	0.00	29.939 
14:55	86.1	86.1	86.2	43	61.0	3	6	270	0.00	29.939 
15:00	86.5	86.5	86.5	42	60.6	3	5	248	0.00	29.938 
15:05	86.3	86.3	86.2	42	60.5	3	10	248	0.00	29.938 
15:10	85.7	85.7	85.7	43	60.6	3	9	248	0.00	29.938 
15:15	85.7	85.7	86.0	44	61.2	2	6	248	0.00	29.934 
15:20	85.7	85.7	86.2	45	61.9	3	9	248	0.00	29.934 
15:25	85.7	85.7	86.0	44	61.2	2	9	270	0.00	29.934 
15:30	85.3	85.3	85.7	45	61.5	3	7	270	0.00	29.930 
15:35	85.7	85.7	86.0	44	61.2	3	7	270	0.00	29.930 
15:40	85.9	85.9	86.2	44	61.4	3	7	248	0.00	29.930 
15:45	85.5	85.5	86.2	46	62.3	2	6	270	0.00	29.921 
15:50	85.7	85.7	86.9	48	63.7	3	7	248	0.00	29.921 
15:55	86.1	86.1	86.7	45	62.2	3	9	248	0.00	29.921 
16:00	85.9	85.9	86.2	44	61.4	4	11	270	0.00	29.915 
16:05	85.7	85.7	86.2	45	61.9	3	7	248	0.00	29.915 
16:10	85.7	85.7	86.4	46	62.5	3	8	270	0.00	29.915 
16:15	85.7	85.7	86.2	45	61.9	2	5	248	0.00	29.914 
16:20	85.9	85.9	86.0	43	60.8	3	10	270	0.00	29.914 
16:25	85.7	85.7	86.0	44	61.2	3	10	270	0.00	29.914 
16:30	85.5	85.5	85.9	45	61.7	2	6	270	0.00	29.904 
16:35	85.9	85.9	86.7	46	62.7	2	6	270	0.00	29.904 
16:40	85.9	85.9	86.4	45	62.1	3	7	248	0.00	29.904 
16:45	86.1	86.1	86.5	44	61.6	3	9	248	0.00	29.899 
16:50	85.9	85.9	86.0	43	60.8	3	6	248	0.00	29.899 
16:55	85.5	85.5	85.7	44	61.1	3	6	248	0.00	29.899 
17:00	85.7	85.7	86.0	44	61.2	3	9	270	0.00	29.886 
17:05	85.7	85.7	86.9	48	63.7	3	9	248	0.00	29.886 
17:10	85.5	85.5	85.7	44	61.1	3	10	248	0.00	29.886 
17:15	85.5	85.5	85.7	44	61.1	3	6	270	0.00	29.882 
17:20	85.7	85.7	86.0	44	61.2	2	7	292	0.00	29.882 
17:25	85.9	85.9	85.5	41	59.4	4	8	248	0.00	29.882 
17:30	85.7	85.7	85.3	41	59.3	4	10	248	0.00	29.881 
17:35	85.9	85.9	85.7	42	60.1	2	9	248	0.00	29.881 
17:40	85.9	85.9	85.5	41	59.4	2	6	270	0.00	29.881 
17:45	85.7	85.7	85.5	42	59.9	3	7	270	0.00	29.872 
17:50	85.5	85.5	85.1	41	59.1	2	6	270	0.00	29.872 
17:55	85.7	85.7	85.5	42	59.9	2	5	270	0.00	29.872 
18:00	85.9	85.9	85.5	41	59.4	1	4	270	0.00	29.873 
18:05	86.1	86.1	85.4	39	58.2	2	6	270	0.00	29.873 
18:10	85.7	85.7	84.9	39	57.9	4	12	248	0.00	29.873 
18:15	85.3	85.3	84.5	39	57.5	2	12	248	0.00	29.869 
18:20	85.1	85.1	84.4	40	58.0	3	9	248	0.00	29.869 
18:25	85.1	85.1	84.4	40	58.0	1	4	248	0.00	29.869 
18:30	84.9	84.9	84.0	39	57.1	3	11	270	0.00	29.864 
18:35	84.5	84.5	83.6	39	56.8	4	10	248	0.00	29.864 
18:40	84.5	84.5	83.6	39	56.8	3	10	248	0.00	29.864 
18:45	84.7	84.7	84.0	40	57.7	3	12	248	0.00	29.866 
18:50	84.7	84.7	83.8	39	57.0	2	6	270	0.00	29.866 
18:55	84.5	84.5	83.8	40	57.5	2	5	248	0.00	29.866 
19:00	84.5	84.5	83.8	40	57.5	2	10	248	0.00	29.868 
19:05	84.3	84.3	83.4	39	56.6	2	5	248	0.00	29.868 
19:10	84.1	84.1	83.4	40	57.1	1	4	270	0.00	29.868 
19:15	84.1	84.1	83.4	40	57.1	3	10	225	0.00	29.868 
19:20	84.0	84.0	83.3	40	57.0	2	6	248	0.00	29.868 
19:25	83.8	83.8	83.2	41	57.6	1	4	270	0.00	29.868 
19:30	83.8	83.8	83.2	41	57.6	2	7	270	0.00	29.865 
19:35	83.8	83.8	83.2	41	57.6	1	6	248	0.00	29.865 
19:40	83.6	83.6	83.2	42	58.0	1	4	248	0.00	29.865 
19:45	83.4	83.4	83.2	43	58.5	0	3	248	0.00	29.862 
19:50	83.2	83.2	83.0	43	58.3	1	4	248	0.00	29.862 
19:55	83.0	83.0	82.8	43	58.2	1	3	338	0.00	29.862 
20:00	82.6	82.6	82.4	43	57.8	1	5	338	0.00	29.870 
20:05	82.4	82.4	82.2	43	57.6	1	3	248	0.00	29.870 
20:10	82.4	82.4	82.3	44	58.3	1	4	248	0.00	29.870 
20:15	82.2	82.2	82.1	44	58.1	1	3	248	0.00	29.866 
20:20	82.0	82.0	82.1	45	58.5	1	3	248	0.00	29.866 
20:25	81.8	81.8	81.9	45	58.4	1	5	248	0.00	29.866 
20:30	81.6	81.6	81.8	46	58.8	0	3	248	0.00	29.879 
20:35	81.2	81.2	81.5	46	58.4	0	2	248	0.00	29.879 
20:40	80.9	80.9	81.3	47	58.8	1	2	248	0.00	29.879 
20:45	80.7	80.7	81.2	48	59.2	0	3	248	0.00	29.882 
20:50	80.3	80.3	80.9	48	58.8	0	3	248	0.00	29.882 
20:55	80.1	80.1	80.8	49	59.2	0	1	248	0.00	29.882 
21:00	79.9	79.9	80.7	50	59.6	0	1	248	0.00	29.897 
21:05	79.6	79.6	80.5	50	59.3	0	1	248	0.00	29.897 
21:10	79.6	79.6	80.5	50	59.3	0	3	248	0.00	29.897 
21:15	79.4	79.4	80.4	51	59.7	0	1	248	0.00	29.905 
21:20	79.0	79.0	80.0	51	59.3	0	1	248	0.00	29.905 
21:25	78.6	78.6	79.8	52	59.5	0	1	248	0.00	29.905 
21:30	78.5	78.5	79.8	53	59.9	0	2	248	0.00	29.915 
21:35	78.3	78.3	79.6	53	59.7	0	2	248	0.00	29.915 
21:40	78.3	78.3	79.6	53	59.7	0	1	248	0.00	29.915 
21:45	78.1	78.1	79.5	53	59.6	0	1	248	0.00	29.927 
21:50	77.9	77.9	79.3	53	59.4	0	1	248	0.00	29.927 
21:55	78.1	78.1	79.5	53	59.6	0	2	248	0.00	29.927 
22:00	77.9	77.9	79.3	53	59.4	0	1	248	0.00	29.933 
22:05	77.9	77.9	79.3	54	59.9	0	2	248	0.00	29.933 
22:10	77.7	77.7	79.2	54	59.7	0	1	248	0.00	29.933 
22:15	77.7	77.7	79.2	54	59.7	0	1	248	0.00	29.935 
22:20	77.6	77.6	79.1	54	59.6	0	1	248	0.00	29.935 
22:25	77.4	77.4	79.0	55	59.9	0	0	---	0.00	29.935 
22:30	77.0	77.0	78.7	55	59.6	0	1	248	0.00	29.941 
22:35	76.8	76.8	78.6	56	59.9	0	1	248	0.00	29.941 
22:40	76.7	76.7	78.5	56	59.8	0	1	248	0.00	29.941 
22:45	76.5	76.5	78.4	57	60.1	0	1	248	0.00	29.945 
22:50	76.1	76.1	78.1	58	60.2	0	1	248	0.00	29.945 
22:55	75.8	75.8	77.9	58	59.9	0	0	---	0.00	29.945 
23:00	75.6	75.6	77.8	59	60.2	0	0	---	0.00	29.944 
23:05	75.3	75.3	77.6	59	60.0	0	0	---	0.00	29.944 
23:10	74.9	74.9	74.9	60	60.1	0	0	---	0.00	29.944 
23:15	74.4	74.4	74.4	61	60.1	0	0	---	0.00	29.941 
23:20	74.0	74.0	74.0	62	60.1	0	1	248	0.00	29.941 
23:25	73.9	73.9	73.9	63	60.5	0	1	248	0.00	29.941 
23:30	73.7	73.7	73.7	63	60.3	0	1	248	0.00	29.941 
23:35	73.5	73.5	73.5	64	60.6	0	0	---	0.00	29.941 
23:40	73.3	73.3	73.3	64	60.4	0	1	248	0.00	29.941 
23:45	73.2	73.2	73.2	65	60.7	0	1	248	0.00	29.934 
23:50	73.0	73.0	73.0	65	60.5	0	1	248	0.00	29.934 
23:55	72.8	72.8	72.8	66	60.8	0	1	248	0.00	29.934 

CoCoRaHS
IN-AL-39
A2 Web Hosting
Creative Commons License
GoDaddy
search engine by freefind advanced

loaded 2018-11-13 23:34:28 • last modified 2010-11-18 10:43:29
Privacy PolicyDisclaimer
• wx.awcolley.com is powered by PmWiki v.2002016 •
• all content (unless otherwise noted) © 2018 A W Colley